sensor_id;sensor_type;location;lat;lon;timestamp;pressure;altitude;pressure_sealevel;temperature;humidity
6938;BME280;40040;42.706;23.372;2023-01-25T00:02:26;144684.53;;;2.01;100.00
6938;BME280;40040;42.706;23.372;2023-01-25T00:04:53;144684.53;;;2.01;100.00
6938;BME280;40040;42.706;23.372;2023-01-25T00:07:20;144689.47;;;2.03;100.00
6938;BME280;40040;42.706;23.372;2023-01-25T00:09:47;144668.63;;;1.95;100.00
6938;BME280;40040;42.706;23.372;2023-01-25T00:12:13;144656.38;;;1.90;100.00
6938;BME280;40040;42.706;23.372;2023-01-25T00:14:40;144656.38;;;1.90;100.00
6938;BME280;40040;42.706;23.372;2023-01-25T00:17:08;144596.38;;;1.65;100.00
6938;BME280;40040;42.706;23.372;2023-01-25T00:19:35;144617.19;;;1.74;100.00
6938;BME280;40040;42.706;23.372;2023-01-25T00:22:02;144624.53;;;1.77;100.00
6938;BME280;40040;42.706;23.372;2023-01-25T00:24:29;144645.34;;;1.85;100.00
6938;BME280;40040;42.706;23.372;2023-01-25T00:26:55;144628.19;;;1.78;100.00
6938;BME280;40040;42.706;23.372;2023-01-25T00:29:22;144627.00;;;1.78;100.00
6938;BME280;40040;42.706;23.372;2023-01-25T00:31:53;144615.94;;;1.73;100.00
6938;BME280;40040;42.706;23.372;2023-01-25T00:34:49;144624.53;;;1.77;100.00
6938;BME280;40040;42.706;23.372;2023-01-25T00:37:24;144542.47;;;1.43;100.00
6938;BME280;40040;42.706;23.372;2023-01-25T00:39:54;144612.28;;;1.72;100.00
6938;BME280;40040;42.706;23.372;2023-01-25T00:42:21;144628.19;;;1.78;100.00
6938;BME280;40040;42.706;23.372;2023-01-25T00:44:48;144625.75;;;1.77;100.00
6938;BME280;40040;42.706;23.372;2023-01-25T00:47:15;144618.44;;;1.74;100.00
6938;BME280;40040;42.706;23.372;2023-01-25T00:49:43;144635.56;;;1.81;100.00
6938;BME280;40040;42.706;23.372;2023-01-25T00:52:12;144623.28;;;1.76;100.00
6938;BME280;40040;42.706;23.372;2023-01-25T00:54:39;144638.00;;;1.82;100.00
6938;BME280;40040;42.706;23.372;2023-01-25T00:57:07;144628.19;;;1.78;100.00
6938;BME280;40040;42.706;23.372;2023-01-25T00:59:34;144646.56;;;1.86;100.00
6938;BME280;40040;42.706;23.372;2023-01-25T01:02:01;144635.56;;;1.81;100.00
6938;BME280;40040;42.706;23.372;2023-01-25T01:04:29;144667.41;;;1.94;100.00
6938;BME280;40040;42.706;23.372;2023-01-25T01:06:56;144668.63;;;1.95;100.00
6938;BME280;40040;42.706;23.372;2023-01-25T01:09:24;144677.22;;;1.98;100.00
6938;BME280;40040;42.706;23.372;2023-01-25T01:11:51;144695.56;;;2.06;100.00
6938;BME280;40040;42.706;23.372;2023-01-25T01:14:19;144724.94;;;2.18;100.00
6938;BME280;40040;42.706;23.372;2023-01-25T01:16:46;144751.94;;;2.29;100.00
6938;BME280;40040;42.706;23.372;2023-01-25T01:19:14;144759.25;;;2.32;100.00
6938;BME280;40040;42.706;23.372;2023-01-25T01:21:41;144729.88;;;2.20;100.00
6938;BME280;40040;42.706;23.372;2023-01-25T01:24:09;144761.75;;;2.33;100.00
6938;BME280;40040;42.706;23.372;2023-01-25T01:26:37;144756.84;;;2.31;100.00
6938;BME280;40040;42.706;23.372;2023-01-25T01:29:04;144728.66;;;2.19;100.00
6938;BME280;40040;42.706;23.372;2023-01-25T01:31:31;144738.44;;;2.23;100.00
6938;BME280;40040;42.706;23.372;2023-01-25T01:33:58;144758.06;;;2.32;100.00
6938;BME280;40040;42.706;23.372;2023-01-25T01:36:27;144755.59;;;2.30;100.00
6938;BME280;40040;42.706;23.372;2023-01-25T01:38:54;144733.53;;;2.21;100.00
6938;BME280;40040;42.706;23.372;2023-01-25T01:41:21;144713.94;;;2.13;100.00
6938;BME280;40040;42.706;23.372;2023-01-25T01:43:49;144716.38;;;2.14;100.00
6938;BME280;40040;42.706;23.372;2023-01-25T01:46:21;144707.84;;;2.11;100.00
6938;BME280;40040;42.706;23.372;2023-01-25T01:48:53;144707.84;;;2.11;100.00
6938;BME280;40040;42.706;23.372;2023-01-25T01:51:24;144682.13;;;2.00;100.00
6938;BME280;40040;42.706;23.372;2023-01-25T01:53:56;144677.22;;;1.98;100.00
6938;BME280;40040;42.706;23.372;2023-01-25T01:56:30;144682.13;;;2.00;100.00
6938;BME280;40040;42.706;23.372;2023-01-25T01:59:00;144658.81;;;1.91;100.00
6938;BME280;40040;42.706;23.372;2023-01-25T02:01:28;144651.50;;;1.88;100.00
6938;BME280;40040;42.706;23.372;2023-01-25T02:03:55;144627.00;;;1.78;100.00
6938;BME280;40040;42.706;23.372;2023-01-25T02:06:27;144630.66;;;1.79;100.00
6938;BME280;40040;42.706;23.372;2023-01-25T02:08:57;144635.56;;;1.81;100.00
6938;BME280;40040;42.706;23.372;2023-01-25T02:11:26;144596.38;;;1.65;100.00
6938;BME280;40040;42.706;23.372;2023-01-25T02:13:54;144623.28;;;1.76;100.00
6938;BME280;40040;42.706;23.372;2023-01-25T02:16:26;144611.03;;;1.71;100.00
6938;BME280;40040;42.706;23.372;2023-01-25T02:18:56;144633.09;;;1.80;100.00
6938;BME280;40040;42.706;23.372;2023-01-25T02:21:30;144635.56;;;1.81;100.00
6938;BME280;40040;42.706;23.372;2023-01-25T02:24:04;144642.91;;;1.84;100.00
6938;BME280;40040;42.706;23.372;2023-01-25T02:26:35;144645.34;;;1.85;100.00
6938;BME280;40040;42.706;23.372;2023-01-25T02:29:04;144636.75;;;1.82;100.00
6938;BME280;40040;42.706;23.372;2023-01-25T02:31:31;144634.34;;;1.81;100.00
6938;BME280;40040;42.706;23.372;2023-01-25T02:33:58;144614.72;;;1.73;100.00
6938;BME280;40040;42.706;23.372;2023-01-25T02:36:27;144581.66;;;1.59;100.00
6938;BME280;40040;42.706;23.372;2023-01-25T02:38:58;144669.81;;;1.95;100.00
6938;BME280;40040;42.706;23.372;2023-01-25T02:41:31;144664.97;;;1.93;100.00
6938;BME280;40040;42.706;23.372;2023-01-25T02:44:01;144701.69;;;2.08;100.00
6938;BME280;40040;42.706;23.372;2023-01-25T02:46:30;144701.69;;;2.08;100.00
6938;BME280;40040;42.706;23.372;2023-01-25T02:48:59;144704.13;;;2.09;100.00
6938;BME280;40040;42.706;23.372;2023-01-25T02:51:28;144718.84;;;2.15;100.00
6938;BME280;40040;42.706;23.372;2023-01-25T02:53:56;144718.84;;;2.15;100.00
6938;BME280;40040;42.706;23.372;2023-01-25T02:56:23;144728.66;;;2.19;100.00
6938;BME280;40040;42.706;23.372;2023-01-25T02:58:51;144729.88;;;2.20;100.00
6938;BME280;40040;42.706;23.372;2023-01-25T03:01:19;144736.00;;;2.22;100.00
6938;BME280;40040;42.706;23.372;2023-01-25T03:03:47;144680.88;;;2.00;100.00
6938;BME280;40040;42.706;23.372;2023-01-25T03:06:14;144713.94;;;2.13;100.00
6938;BME280;40040;42.706;23.372;2023-01-25T03:08:41;144700.47;;;2.08;100.00
6938;BME280;40040;42.706;23.372;2023-01-25T03:11:08;144678.41;;;1.99;100.00
6938;BME280;40040;42.706;23.372;2023-01-25T03:13:35;144699.28;;;2.07;100.00
6938;BME280;40040;42.706;23.372;2023-01-25T03:16:04;144699.28;;;2.07;100.00
6938;BME280;40040;42.706;23.372;2023-01-25T03:18:34;144702.94;;;2.09;100.00
6938;BME280;40040;42.706;23.372;2023-01-25T03:21:05;144718.84;;;2.15;100.00
6938;BME280;40040;42.706;23.372;2023-01-25T03:23:32;144738.44;;;2.23;100.00
6938;BME280;40040;42.706;23.372;2023-01-25T03:26:10;144650.25;;;1.87;100.00
6938;BME280;40040;42.706;23.372;2023-01-25T03:28:39;144702.94;;;2.09;100.00
6938;BME280;40040;42.706;23.372;2023-01-25T03:31:06;144754.41;;;2.30;100.00
6938;BME280;40040;42.706;23.372;2023-01-25T03:33:35;144739.69;;;2.24;100.00
6938;BME280;40040;42.706;23.372;2023-01-25T03:36:03;144726.19;;;2.18;100.00
6938;BME280;40040;42.706;23.372;2023-01-25T03:38:31;144689.47;;;2.03;100.00
6938;BME280;40040;42.706;23.372;2023-01-25T03:40:58;144716.38;;;2.14;100.00
6938;BME280;40040;42.706;23.372;2023-01-25T03:43:25;144726.19;;;2.18;100.00
6938;BME280;40040;42.706;23.372;2023-01-25T03:45:52;144737.25;;;2.23;100.00
6938;BME280;40040;42.706;23.372;2023-01-25T03:48:19;144743.34;;;2.25;100.00
6938;BME280;40040;42.706;23.372;2023-01-25T03:50:52;144748.25;;;2.27;100.00
6938;BME280;40040;42.706;23.372;2023-01-25T03:53:22;144750.69;;;2.28;100.00
6938;BME280;40040;42.706;23.372;2023-01-25T03:55:55;144711.50;;;2.12;100.00
6938;BME280;40040;42.706;23.372;2023-01-25T03:58:22;144743.34;;;2.25;100.00
6938;BME280;40040;42.706;23.372;2023-01-25T04:00:49;144711.50;;;2.12;100.00
6938;BME280;40040;42.706;23.372;2023-01-25T04:03:16;144690.69;;;2.04;100.00
6938;BME280;40040;42.706;23.372;2023-01-25T04:05:44;144675.97;;;1.98;100.00
6938;BME280;40040;42.706;23.372;2023-01-25T04:08:13;144652.69;;;1.88;100.00
6938;BME280;40040;42.706;23.372;2023-01-25T04:10:40;144645.34;;;1.85;100.00
6938;BME280;40040;42.706;23.372;2023-01-25T04:13:07;144615.94;;;1.73;100.00
6938;BME280;40040;42.706;23.372;2023-01-25T04:15:34;144628.19;;;1.78;100.00
6938;BME280;40040;42.706;23.372;2023-01-25T04:18:01;144638.00;;;1.82;100.00
6938;BME280;40040;42.706;23.372;2023-01-25T04:20:28;144611.03;;;1.71;100.00
6938;BME280;40040;42.706;23.372;2023-01-25T04:22:55;144606.13;;;1.69;100.00
6938;BME280;40040;42.706;23.372;2023-01-25T04:25:23;144591.47;;;1.63;100.00
6938;BME280;40040;42.706;23.372;2023-01-25T04:27:50;144570.66;;;1.55;100.00
6938;BME280;40040;42.706;23.372;2023-01-25T04:30:17;144548.59;;;1.46;100.00
6938;BME280;40040;42.706;23.372;2023-01-25T04:32:44;144564.50;;;1.52;100.00
6938;BME280;40040;42.706;23.372;2023-01-25T04:35:11;144542.47;;;1.43;100.00
6938;BME280;40040;42.706;23.372;2023-01-25T04:37:37;144532.69;;;1.39;100.00
6938;BME280;40040;42.706;23.372;2023-01-25T04:40:05;144538.78;;;1.42;100.00
6938;BME280;40040;42.706;23.372;2023-01-25T04:42:34;144542.47;;;1.43;100.00
6938;BME280;40040;42.706;23.372;2023-01-25T04:45:01;144525.31;;;1.36;100.00
6938;BME280;40040;42.706;23.372;2023-01-25T04:47:28;144532.69;;;1.39;100.00
6938;BME280;40040;42.706;23.372;2023-01-25T04:49:55;144546.19;;;1.45;100.00
6938;BME280;40040;42.706;23.372;2023-01-25T04:52:22;144546.19;;;1.45;100.00
6938;BME280;40040;42.706;23.372;2023-01-25T04:54:48;144546.19;;;1.45;100.00
6938;BME280;40040;42.706;23.372;2023-01-25T04:57:15;144532.69;;;1.39;100.00
6938;BME280;40040;42.706;23.372;2023-01-25T04:59:43;144521.66;;;1.35;100.00
6938;BME280;40040;42.706;23.372;2023-01-25T05:02:10;144519.22;;;1.34;100.00
6938;BME280;40040;42.706;23.372;2023-01-25T05:04:37;144533.91;;;1.40;100.00
6938;BME280;40040;42.706;23.372;2023-01-25T05:07:04;144544.94;;;1.44;100.00
6938;BME280;40040;42.706;23.372;2023-01-25T05:09:31;144532.69;;;1.39;100.00
6938;BME280;40040;42.706;23.372;2023-01-25T05:11:57;144521.66;;;1.35;100.00
6938;BME280;40040;42.706;23.372;2023-01-25T05:14:24;144482.50;;;1.19;100.00
6938;BME280;40040;42.706;23.372;2023-01-25T05:16:52;144495.94;;;1.24;100.00
6938;BME280;40040;42.706;23.372;2023-01-25T05:19:19;144508.19;;;1.29;100.00
6938;BME280;40040;42.706;23.372;2023-01-25T05:21:46;144494.75;;;1.24;100.00
6938;BME280;40040;42.706;23.372;2023-01-25T05:24:25;144486.19;;;1.20;100.00
6938;BME280;40040;42.706;23.372;2023-01-25T05:26:52;144495.94;;;1.24;100.00
6938;BME280;40040;42.706;23.372;2023-01-25T05:29:25;144422.53;;;0.94;100.00
6938;BME280;40040;42.706;23.372;2023-01-25T05:31:53;144503.31;;;1.27;100.00
6938;BME280;40040;42.706;23.372;2023-01-25T05:34:20;144506.97;;;1.29;100.00
6938;BME280;40040;42.706;23.372;2023-01-25T05:36:47;144508.19;;;1.29;100.00
6938;BME280;40040;42.706;23.372;2023-01-25T05:39:14;144497.19;;;1.25;100.00
6938;BME280;40040;42.706;23.372;2023-01-25T05:41:40;144493.50;;;1.23;100.00
6938;BME280;40040;42.706;23.372;2023-01-25T05:44:07;144503.31;;;1.27;100.00
6938;BME280;40040;42.706;23.372;2023-01-25T05:46:34;144494.75;;;1.24;100.00
6938;BME280;40040;42.706;23.372;2023-01-25T05:49:02;144515.56;;;1.32;100.00
6938;BME280;40040;42.706;23.372;2023-01-25T05:51:29;144521.66;;;1.35;100.00
6938;BME280;40040;42.706;23.372;2023-01-25T05:53:56;144515.56;;;1.32;100.00
6938;BME280;40040;42.706;23.372;2023-01-25T05:56:23;144522.88;;;1.35;100.00
6938;BME280;40040;42.706;23.372;2023-01-25T05:58:52;144497.19;;;1.25;100.00
6938;BME280;40040;42.706;23.372;2023-01-25T06:01:20;144505.75;;;1.28;100.00
6938;BME280;40040;42.706;23.372;2023-01-25T06:03:47;144510.66;;;1.30;100.00
6938;BME280;40040;42.706;23.372;2023-01-25T06:06:15;144422.53;;;0.94;100.00
6938;BME280;40040;42.706;23.372;2023-01-25T06:08:42;144502.09;;;1.27;100.00
6938;BME280;40040;42.706;23.372;2023-01-25T06:11:10;144513.09;;;1.31;100.00
6938;BME280;40040;42.706;23.372;2023-01-25T06:13:38;144530.22;;;1.38;100.00
6938;BME280;40040;42.706;23.372;2023-01-25T06:16:05;144518.00;;;1.33;100.00
6938;BME280;40040;42.706;23.372;2023-01-25T06:18:33;144547.38;;;1.45;100.00
6938;BME280;40040;42.706;23.372;2023-01-25T06:21:02;144547.38;;;1.45;100.00
6938;BME280;40040;42.706;23.372;2023-01-25T06:23:31;144554.75;;;1.48;100.00
6938;BME280;40040;42.706;23.372;2023-01-25T06:25:59;144555.94;;;1.49;100.00
6938;BME280;40040;42.706;23.372;2023-01-25T06:28:28;144566.97;;;1.53;100.00
6938;BME280;40040;42.706;23.372;2023-01-25T06:30:55;144569.41;;;1.54;100.00
6938;BME280;40040;42.706;23.372;2023-01-25T06:33:22;144574.31;;;1.56;100.00
6938;BME280;40040;42.706;23.372;2023-01-25T06:35:49;144574.31;;;1.56;100.00
6938;BME280;40040;42.706;23.372;2023-01-25T06:38:17;144571.84;;;1.55;100.00
6938;BME280;40040;42.706;23.372;2023-01-25T06:40:45;144570.66;;;1.55;100.00
6938;BME280;40040;42.706;23.372;2023-01-25T06:43:12;144553.50;;;1.48;100.00
6938;BME280;40040;42.706;23.372;2023-01-25T06:45:38;144566.97;;;1.53;100.00
6938;BME280;40040;42.706;23.372;2023-01-25T06:48:05;144552.28;;;1.47;100.00
6938;BME280;40040;42.706;23.372;2023-01-25T06:50:32;144552.28;;;1.47;100.00
6938;BME280;40040;42.706;23.372;2023-01-25T06:52:59;144560.84;;;1.51;100.00
6938;BME280;40040;42.706;23.372;2023-01-25T06:55:26;144542.47;;;1.43;100.00
6938;BME280;40040;42.706;23.372;2023-01-25T06:57:54;144537.59;;;1.41;100.00
6938;BME280;40040;42.706;23.372;2023-01-25T07:00:21;144532.69;;;1.39;100.00
6938;BME280;40040;42.706;23.372;2023-01-25T07:02:48;144537.59;;;1.41;100.00
6938;BME280;40040;42.706;23.372;2023-01-25T07:05:15;144513.09;;;1.31;100.00
6938;BME280;40040;42.706;23.372;2023-01-25T07:07:43;144569.41;;;1.54;100.00
6938;BME280;40040;42.706;23.372;2023-01-25T07:10:10;144584.13;;;1.60;100.00
6938;BME280;40040;42.706;23.372;2023-01-25T07:12:37;144566.97;;;1.53;100.00
6938;BME280;40040;42.706;23.372;2023-01-25T07:15:07;144573.09;;;1.56;100.00
6938;BME280;40040;42.706;23.372;2023-01-25T07:17:34;144579.22;;;1.58;100.00
6938;BME280;40040;42.706;23.372;2023-01-25T07:20:01;144559.59;;;1.50;100.00
6938;BME280;40040;42.706;23.372;2023-01-25T07:22:28;144544.94;;;1.44;100.00
6938;BME280;40040;42.706;23.372;2023-01-25T07:24:55;144542.47;;;1.43;100.00
6938;BME280;40040;42.706;23.372;2023-01-25T07:27:23;144559.59;;;1.50;100.00
6938;BME280;40040;42.706;23.372;2023-01-25T07:29:51;144547.38;;;1.45;100.00
6938;BME280;40040;42.706;23.372;2023-01-25T07:32:20;144549.84;;;1.46;100.00
6938;BME280;40040;42.706;23.372;2023-01-25T07:34:47;144547.38;;;1.45;100.00
6938;BME280;40040;42.706;23.372;2023-01-25T07:37:15;144546.19;;;1.45;100.00
6938;BME280;40040;42.706;23.372;2023-01-25T07:39:42;144557.19;;;1.49;100.00
6938;BME280;40040;42.706;23.372;2023-01-25T07:42:14;144540.03;;;1.42;100.00
6938;BME280;40040;42.706;23.372;2023-01-25T07:44:41;144544.94;;;1.44;100.00
6938;BME280;40040;42.706;23.372;2023-01-25T07:47:09;144542.47;;;1.43;100.00
6938;BME280;40040;42.706;23.372;2023-01-25T07:49:37;144571.84;;;1.55;100.00
6938;BME280;40040;42.706;23.372;2023-01-25T07:52:04;144593.91;;;1.64;100.00
6938;BME280;40040;42.706;23.372;2023-01-25T07:54:31;144593.91;;;1.64;100.00
6938;BME280;40040;42.706;23.372;2023-01-25T07:56:58;144557.19;;;1.49;100.00
6938;BME280;40040;42.706;23.372;2023-01-25T07:59:25;144557.19;;;1.49;100.00
6938;BME280;40040;42.706;23.372;2023-01-25T08:01:52;144544.94;;;1.44;100.00
6938;BME280;40040;42.706;23.372;2023-01-25T08:04:19;144530.22;;;1.38;100.00
6938;BME280;40040;42.706;23.372;2023-01-25T08:06:47;144524.13;;;1.36;100.00
6938;BME280;40040;42.706;23.372;2023-01-25T08:09:16;144526.56;;;1.37;100.00
6938;BME280;40040;42.706;23.372;2023-01-25T08:11:44;144535.13;;;1.40;100.00
6938;BME280;40040;42.706;23.372;2023-01-25T08:14:13;144529.03;;;1.38;100.00
6938;BME280;40040;42.706;23.372;2023-01-25T08:16:40;144537.59;;;1.41;100.00
6938;BME280;40040;42.706;23.372;2023-01-25T08:19:08;144557.19;;;1.49;100.00
6938;BME280;40040;42.706;23.372;2023-01-25T08:21:35;144564.50;;;1.52;100.00
6938;BME280;40040;42.706;23.372;2023-01-25T08:24:05;144581.66;;;1.59;100.00
6938;BME280;40040;42.706;23.372;2023-01-25T08:26:33;144597.56;;;1.66;100.00
6938;BME280;40040;42.706;23.372;2023-01-25T08:29:01;144613.53;;;1.72;100.00
6938;BME280;40040;42.706;23.372;2023-01-25T08:31:29;144628.19;;;1.78;100.00
6938;BME280;40040;42.706;23.372;2023-01-25T08:33:57;144598.81;;;1.66;100.00
6938;BME280;40040;42.706;23.372;2023-01-25T08:36:25;144638.00;;;1.82;100.00
6938;BME280;40040;42.706;23.372;2023-01-25T08:38:54;144652.69;;;1.88;100.00
6938;BME280;40040;42.706;23.372;2023-01-25T08:41:23;144646.56;;;1.86;100.00
6938;BME280;40040;42.706;23.372;2023-01-25T08:43:51;144657.59;;;1.90;100.00
6938;BME280;40040;42.706;23.372;2023-01-25T08:46:19;144680.88;;;2.00;100.00
6938;BME280;40040;42.706;23.372;2023-01-25T08:48:46;144694.38;;;2.05;100.00
6938;BME280;40040;42.706;23.372;2023-01-25T08:51:15;144693.13;;;2.05;100.00
6938;BME280;40040;42.706;23.372;2023-01-25T08:53:42;144691.88;;;2.04;100.00
6938;BME280;40040;42.706;23.372;2023-01-25T08:56:11;144704.13;;;2.09;100.00
6938;BME280;40040;42.706;23.372;2023-01-25T08:58:42;144704.13;;;2.09;100.00
6938;BME280;40040;42.706;23.372;2023-01-25T09:01:11;144713.94;;;2.13;100.00
6938;BME280;40040;42.706;23.372;2023-01-25T09:03:41;144722.53;;;2.17;100.00
6938;BME280;40040;42.706;23.372;2023-01-25T09:06:09;144743.34;;;2.25;100.00
6938;BME280;40040;42.706;23.372;2023-01-25T09:08:36;144743.34;;;2.25;100.00
6938;BME280;40040;42.706;23.372;2023-01-25T09:11:04;144736.00;;;2.22;100.00
6938;BME280;40040;42.706;23.372;2023-01-25T09:13:32;144690.69;;;2.04;100.00
6938;BME280;40040;42.706;23.372;2023-01-25T09:16:00;144699.28;;;2.07;100.00
6938;BME280;40040;42.706;23.372;2023-01-25T09:18:27;144721.28;;;2.16;100.00
6938;BME280;40040;42.706;23.372;2023-01-25T09:20:54;144723.75;;;2.17;100.00
6938;BME280;40040;42.706;23.372;2023-01-25T09:23:22;144726.19;;;2.18;100.00
6938;BME280;40040;42.706;23.372;2023-01-25T09:25:55;144702.94;;;2.09;100.00
6938;BME280;40040;42.706;23.372;2023-01-25T09:28:22;144698.03;;;2.07;100.00
6938;BME280;40040;42.706;23.372;2023-01-25T09:30:53;144699.28;;;2.07;100.00
6938;BME280;40040;42.706;23.372;2023-01-25T09:33:25;144686.97;;;2.02;100.00
6938;BME280;40040;42.706;23.372;2023-01-25T09:35:52;144641.69;;;1.84;100.00
6938;BME280;40040;42.706;23.372;2023-01-25T09:38:19;144701.69;;;2.08;100.00
6938;BME280;40040;42.706;23.372;2023-01-25T09:40:57;144724.94;;;2.18;100.00
6938;BME280;40040;42.706;23.372;2023-01-25T09:43:38;144728.66;;;2.19;100.00
6938;BME280;40040;42.706;23.372;2023-01-25T09:46:20;144750.69;;;2.28;100.00
6938;BME280;40040;42.706;23.372;2023-01-25T09:48:57;144751.94;;;2.29;100.00
6938;BME280;40040;42.706;23.372;2023-01-25T09:51:38;144753.16;;;2.29;100.00
6938;BME280;40040;42.706;23.372;2023-01-25T09:54:10;144705.38;;;2.10;100.00
6938;BME280;40040;42.706;23.372;2023-01-25T09:56:38;144702.94;;;2.09;100.00
6938;BME280;40040;42.706;23.372;2023-01-25T09:59:11;144771.56;;;2.37;100.00
6938;BME280;40040;42.706;23.372;2023-01-25T10:01:46;144782.56;;;2.42;100.00
6938;BME280;40040;42.706;23.372;2023-01-25T10:04:18;144785.00;;;2.43;100.00
6938;BME280;40040;42.706;23.372;2023-01-25T10:06:51;144809.56;;;2.53;100.00
6938;BME280;40040;42.706;23.372;2023-01-25T10:09:29;144826.72;;;2.60;100.00
6938;BME280;40040;42.706;23.372;2023-01-25T10:12:01;144836.47;;;2.64;100.00
6938;BME280;40040;42.706;23.372;2023-01-25T10:14:30;144867.13;;;2.76;100.00
6938;BME280;40040;42.706;23.372;2023-01-25T10:17:04;144859.78;;;2.73;100.00
6938;BME280;40040;42.706;23.372;2023-01-25T10:19:43;144858.56;;;2.73;100.00
6938;BME280;40040;42.706;23.372;2023-01-25T10:22:16;144868.38;;;2.77;100.00
6938;BME280;40040;42.706;23.372;2023-01-25T10:24:58;144907.63;;;2.93;100.00
6938;BME280;40040;42.706;23.372;2023-01-25T10:27:36;144895.31;;;2.88;100.00
6938;BME280;40040;42.706;23.372;2023-01-25T10:30:19;144910.03;;;2.94;100.00
6938;BME280;40040;42.706;23.372;2023-01-25T10:32:49;144887.97;;;2.85;100.00
6938;BME280;40040;42.706;23.372;2023-01-25T10:35:22;144940.72;;;3.06;100.00
6938;BME280;40040;42.706;23.372;2023-01-25T10:37:52;144941.91;;;3.07;100.00
6938;BME280;40040;42.706;23.372;2023-01-25T10:40:21;144962.78;;;3.15;100.00
6938;BME280;40040;42.706;23.372;2023-01-25T10:42:52;144939.47;;;3.06;100.00
6938;BME280;40040;42.706;23.372;2023-01-25T10:45:20;145003.22;;;3.32;100.00
6938;BME280;40040;42.706;23.372;2023-01-25T10:47:50;145008.13;;;3.34;100.00
6938;BME280;40040;42.706;23.372;2023-01-25T10:50:50;144998.31;;;3.30;100.00
6938;BME280;40040;42.706;23.372;2023-01-25T10:53:27;144993.41;;;3.28;100.00
6938;BME280;40040;42.706;23.372;2023-01-25T10:55:57;145003.22;;;3.32;100.00
6938;BME280;40040;42.706;23.372;2023-01-25T10:58:30;145052.31;;;3.52;100.00
6938;BME280;40040;42.706;23.372;2023-01-25T11:00:58;145047.41;;;3.50;100.00
6938;BME280;40040;42.706;23.372;2023-01-25T11:03:33;145010.56;;;3.35;100.00
6938;BME280;40040;42.706;23.372;2023-01-25T11:06:04;145008.13;;;3.34;100.00
6938;BME280;40040;42.706;23.372;2023-01-25T11:08:33;145030.22;;;3.43;100.00
6938;BME280;40040;42.706;23.372;2023-01-25T11:11:22;145052.31;;;3.52;100.00
6938;BME280;40040;42.706;23.372;2023-01-25T11:13:51;145047.41;;;3.50;100.00
6938;BME280;40040;42.706;23.372;2023-01-25T11:16:28;145027.75;;;3.42;100.00
6938;BME280;40040;42.706;23.372;2023-01-25T11:18:56;145036.34;;;3.45;100.00
6938;BME280;40040;42.706;23.372;2023-01-25T11:21:27;145033.91;;;3.44;100.00
6938;BME280;40040;42.706;23.372;2023-01-25T11:24:16;145057.19;;;3.54;100.00
6938;BME280;40040;42.706;23.372;2023-01-25T11:26:44;145062.09;;;3.56;100.00
6938;BME280;40040;42.706;23.372;2023-01-25T11:29:13;145060.91;;;3.56;100.00
6938;BME280;40040;42.706;23.372;2023-01-25T11:31:42;145047.41;;;3.50;100.00
6938;BME280;40040;42.706;23.372;2023-01-25T11:34:12;145016.72;;;3.37;100.00
6938;BME280;40040;42.706;23.372;2023-01-25T11:36:48;144995.88;;;3.29;100.00
6938;BME280;40040;42.706;23.372;2023-01-25T11:39:24;144993.41;;;3.28;100.00
6938;BME280;40040;42.706;23.372;2023-01-25T11:42:00;144983.63;;;3.24;100.00
6938;BME280;40040;42.706;23.372;2023-01-25T11:44:45;144986.06;;;3.25;100.00
6938;BME280;40040;42.706;23.372;2023-01-25T11:47:23;145003.22;;;3.32;100.00
6938;BME280;40040;42.706;23.372;2023-01-25T11:50:03;144998.31;;;3.30;100.00
6938;BME280;40040;42.706;23.372;2023-01-25T11:52:43;145006.91;;;3.33;100.00
6938;BME280;40040;42.706;23.372;2023-01-25T11:55:23;145013.06;;;3.36;100.00
6938;BME280;40040;42.706;23.372;2023-01-25T11:58:05;144989.72;;;3.26;100.00
6938;BME280;40040;42.706;23.372;2023-01-25T12:00:42;144998.31;;;3.30;100.00
6938;BME280;40040;42.706;23.372;2023-01-25T12:03:36;145013.06;;;3.36;100.00
6938;BME280;40040;42.706;23.372;2023-01-25T12:06:13;145016.72;;;3.37;100.00
6938;BME280;40040;42.706;23.372;2023-01-25T12:08:56;145020.41;;;3.39;100.00
6938;BME280;40040;42.706;23.372;2023-01-25T12:11:38;144986.06;;;3.25;100.00
6938;BME280;40040;42.706;23.372;2023-01-25T12:14:13;145062.09;;;3.56;100.00
6938;BME280;40040;42.706;23.372;2023-01-25T12:17:03;145054.75;;;3.53;100.00
6938;BME280;40040;42.706;23.372;2023-01-25T12:19:46;145069.50;;;3.59;100.00
6938;BME280;40040;42.706;23.372;2023-01-25T12:22:31;145062.09;;;3.56;100.00
6938;BME280;40040;42.706;23.372;2023-01-25T12:25:13;145047.41;;;3.50;100.00
6938;BME280;40040;42.706;23.372;2023-01-25T12:27:51;145042.50;;;3.48;100.00
6938;BME280;40040;42.706;23.372;2023-01-25T12:30:24;145048.59;;;3.51;100.00
6938;BME280;40040;42.706;23.372;2023-01-25T12:32:58;145005.66;;;3.33;100.00
6938;BME280;40040;42.706;23.372;2023-01-25T12:35:32;145027.75;;;3.42;100.00
6938;BME280;40040;42.706;23.372;2023-01-25T12:38:02;145014.25;;;3.36;100.00
6938;BME280;40040;42.706;23.372;2023-01-25T12:40:44;144983.63;;;3.24;100.00
6938;BME280;40040;42.706;23.372;2023-01-25T12:43:16;145030.22;;;3.43;100.00
6938;BME280;40040;42.706;23.372;2023-01-25T12:45:44;145011.81;;;3.35;100.00
6938;BME280;40040;42.706;23.372;2023-01-25T12:48:17;145042.50;;;3.48;100.00
6938;BME280;40040;42.706;23.372;2023-01-25T12:50:50;145037.56;;;3.46;100.00
6938;BME280;40040;42.706;23.372;2023-01-25T12:53:20;145000.81;;;3.31;100.00
6938;BME280;40040;42.706;23.372;2023-01-25T12:55:51;144988.53;;;3.26;100.00
6938;BME280;40040;42.706;23.372;2023-01-25T12:58:24;144993.41;;;3.28;100.00
6938;BME280;40040;42.706;23.372;2023-01-25T13:00:57;144959.06;;;3.14;100.00
6938;BME280;40040;42.706;23.372;2023-01-25T13:03:36;144995.88;;;3.29;100.00
6938;BME280;40040;42.706;23.372;2023-01-25T13:06:14;144987.31;;;3.25;100.00